Time;durP1;ratioP1;P1;durP2;ratioP2;P2;SDS_P1;SDS_P2;PMS_P1;PMS_P2;Temp;Humidity;BMP_temperature;BMP_pressure;BME280_temperature;BME280_humidity;BME280_pressure;Samples;Min_cycle;Max_cycle;Signal;HPM_P1;HPM_P2
2023/05/13 00:00:02;;;;;;;14.30;5.70;;;;;;;11.18;47.18;100734.09;129633;1280;114718;-68
2023/05/13 00:03:25;;;;;;;11.60;5.40;;;;;;;11.15;47.36;100734.95;129594;1261;115387;-68
2023/05/13 00:06:27;;;;;;;13.20;5.50;;;;;;;11.13;47.33;100734.89;129670;1260;114741;-69
2023/05/13 00:09:30;;;;;;;10.70;5.60;;;;;;;11.10;47.28;100733.38;129688;1280;115269;-69
2023/05/13 00:12:32;;;;;;;12.00;5.60;;;;;;;11.09;47.61;100730.58;129729;1256;114811;-67
2023/05/13 00:15:35;;;;;;;11.10;5.30;;;;;;;11.05;47.46;100730.55;129501;1280;114726;-69
2023/05/13 00:18:38;;;;;;;13.40;6.60;;;;;;;11.02;47.38;100731.93;129437;1264;115228;-69
2023/05/13 00:21:41;;;;;;;10.80;5.60;;;;;;;10.99;47.64;100729.04;129597;1262;114731;-68
2023/05/13 00:24:43;;;;;;;9.30;5.50;;;;;;;10.97;47.52;100728.45;129598;1275;114791;-66
2023/05/13 00:27:46;;;;;;;9.30;5.20;;;;;;;10.94;47.62;100727.83;129645;1278;115158;-67
2023/05/13 00:30:49;;;;;;;8.30;5.80;;;;;;;10.92;47.59;100725.05;129682;1258;114983;-66
2023/05/13 00:33:51;;;;;;;9.80;4.90;;;;;;;10.91;47.70;100727.45;129478;1264;115087;-69
2023/05/13 00:36:54;;;;;;;11.70;5.40;;;;;;;10.89;47.60;100726.80;129589;1274;114720;-69
2023/05/13 00:39:57;;;;;;;14.10;6.10;;;;;;;10.88;47.79;100723.81;129722;1262;114746;-68
2023/05/13 00:42:59;;;;;;;11.90;6.90;;;;;;;10.86;47.68;100724.08;129678;1281;114750;-68
2023/05/13 00:46:03;;;;;;;10.80;6.00;;;;;;;10.83;47.93;100724.95;129517;1257;115357;-64
2023/05/13 00:49:05;;;;;;;11.20;5.90;;;;;;;10.79;48.01;100727.05;129662;1261;115434;-65
2023/05/13 00:52:08;;;;;;;11.60;4.90;;;;;;;10.76;48.12;100728.41;129685;1279;114708;-68
2023/05/13 00:55:11;;;;;;;9.70;5.80;;;;;;;10.73;48.05;100725.16;129702;1258;115162;-66
2023/05/13 00:58:13;;;;;;;9.50;5.30;;;;;;;10.71;48.21;100721.16;129647;1260;114779;-65
2023/05/13 01:01:35;;;;;;;12.20;6.10;;;;;;;10.67;48.15;100727.23;129724;1261;115202;-69
2023/05/13 01:04:56;;;;;;;13.40;5.80;;;;;;;10.63;48.19;100727.92;129629;1280;114991;-64
2023/05/13 01:08:04;;;;;;;15.60;6.50;;;;;;;10.58;48.50;100732.77;129399;1281;115020;-67
2023/05/13 01:11:14;;;;;;;11.40;6.80;;;;;;;10.53;48.43;100736.73;129524;1262;247470;-63
2023/05/13 01:14:32;;;;;;;8.10;5.20;;;;;;;10.48;48.57;100737.83;129365;1262;115216;-68
2023/05/13 01:17:40;;;;;;;10.80;6.30;;;;;;;10.44;48.68;100738.89;129406;1264;114935;-66
2023/05/13 01:20:43;;;;;;;12.90;6.00;;;;;;;10.41;48.70;100740.82;129280;1266;114786;-68
2023/05/13 01:23:45;;;;;;;8.20;5.60;;;;;;;10.39;48.97;100743.22;129215;1283;114986;-65
2023/05/13 01:26:48;;;;;;;9.20;5.30;;;;;;;10.39;48.86;100741.44;129457;1281;114731;-68
2023/05/13 01:29:52;;;;;;;12.10;6.90;;;;;;;10.38;48.92;100745.04;129539;1265;114730;-67
2023/05/13 01:32:55;;;;;;;11.10;5.30;;;;;;;10.37;49.02;100749.70;129426;1259;115142;-69
2023/05/13 01:35:58;;;;;;;11.90;5.70;;;;;;;10.35;49.03;100751.92;129435;1276;114921;-68
2023/05/13 01:39:01;;;;;;;12.80;6.30;;;;;;;10.32;49.07;100755.42;129446;1281;115007;-64
2023/05/13 01:42:04;;;;;;;13.00;6.90;;;;;;;10.30;49.12;100759.27;129565;1281;114738;-64
2023/05/13 01:45:07;;;;;;;11.60;5.80;;;;;;;10.26;49.17;100758.73;129570;1278;114784;-66
2023/05/13 01:48:10;;;;;;;10.20;6.30;;;;;;;10.20;49.17;100762.50;129278;1281;114746;-64
2023/05/13 01:51:12;;;;;;;12.60;6.10;;;;;;;10.14;49.57;100765.61;129481;1264;114719;-69
2023/05/13 01:54:15;;;;;;;14.90;6.60;;;;;;;10.05;49.73;100766.33;129340;1269;114776;-67
2023/05/13 01:57:17;;;;;;;10.80;5.70;;;;;;;9.96;49.89;100772.92;129488;1265;114765;-68
2023/05/13 02:00:20;;;;;;;9.70;5.70;;;;;;;9.88;49.99;100773.45;129318;1279;114815;-68
2023/05/13 02:03:23;;;;;;;14.50;5.50;;;;;;;9.78;50.05;100778.27;129400;1265;114787;-68
2023/05/13 02:06:26;;;;;;;14.60;6.20;;;;;;;9.70;50.39;100775.70;129454;1265;114794;-68
2023/05/13 02:09:28;;;;;;;9.60;7.20;;;;;;;9.63;50.32;100772.97;129445;1263;114716;-69
2023/05/13 02:12:31;;;;;;;15.20;7.30;;;;;;;9.56;50.53;100773.23;129377;1259;114722;-66
2023/05/13 02:15:33;;;;;;;12.00;7.10;;;;;;;9.51;50.81;100775.02;129449;1281;114729;-66
2023/05/13 02:18:36;;;;;;;12.30;8.60;;;;;;;9.45;50.80;100779.49;129709;1281;114752;-68
2023/05/13 02:21:39;;;;;;;14.70;8.00;;;;;;;9.40;51.06;100782.39;129546;1276;128816;-68
2023/05/13 02:24:42;;;;;;;13.30;7.90;;;;;;;9.32;51.03;100779.09;129474;1281;114796;-68
2023/05/13 02:27:44;;;;;;;16.20;8.60;;;;;;;9.24;51.12;100775.66;129572;1262;114715;-67
2023/05/13 02:30:47;;;;;;;25.00;8.40;;;;;;;9.18;51.82;100780.33;129548;1262;114795;-65
2023/05/13 02:33:49;;;;;;;15.10;7.10;;;;;;;9.10;51.84;100777.73;129593;1280;115186;-68
2023/05/13 02:36:52;;;;;;;12.70;7.60;;;;;;;9.02;51.92;100778.38;129578;1262;115054;-67
2023/05/13 02:39:54;;;;;;;15.80;7.70;;;;;;;8.94;51.79;100775.45;129490;1262;114809;-63
2023/05/13 02:42:57;;;;;;;19.80;10.30;;;;;;;8.86;52.15;100771.64;129760;1271;114744;-65
2023/05/13 02:45:59;;;;;;;16.50;7.70;;;;;;;8.79;52.32;100771.86;129457;1259;114711;-67
2023/05/13 02:49:02;;;;;;;11.80;7.90;;;;;;;8.75;53.08;100773.83;129311;1267;114722;-67
2023/05/13 02:52:05;;;;;;;15.00;7.60;;;;;;;8.73;52.87;100774.23;129499;1281;114729;-66
2023/05/13 02:55:08;;;;;;;13.00;6.90;;;;;;;8.71;52.93;100774.10;129464;1281;114782;-67
2023/05/13 02:58:11;;;;;;;15.20;8.00;;;;;;;8.70;52.82;100774.50;129464;1281;114824;-68
2023/05/13 03:01:14;;;;;;;9.90;6.80;;;;;;;8.69;53.32;100778.83;129393;1281;114740;-68
2023/05/13 03:04:16;;;;;;;15.50;7.50;;;;;;;8.67;53.30;100777.47;129506;1263;115168;-67
2023/05/13 03:07:18;;;;;;;20.00;7.70;;;;;;;8.66;53.52;100778.20;129574;1280;115207;-68
2023/05/13 03:10:20;;;;;;;18.30;7.20;;;;;;;8.65;53.40;100777.53;129414;1259;115225;-66
2023/05/13 03:13:22;;;;;;;14.30;7.50;;;;;;;8.64;53.41;100779.33;129585;1262;114718;-67
2023/05/13 03:16:24;;;;;;;24.30;7.80;;;;;;;8.62;53.57;100780.27;129456;1280;114817;-67
2023/05/13 03:19:27;;;;;;;12.50;6.90;;;;;;;8.60;53.59;100782.48;129656;1280;114818;-67
2023/05/13 03:22:29;;;;;;;11.40;6.80;;;;;;;8.60;53.98;100781.44;129619;1271;114767;-65
2023/05/13 03:25:31;;;;;;;10.30;7.00;;;;;;;8.61;53.86;100783.55;129703;1270;115113;-67
2023/05/13 03:28:34;;;;;;;12.20;7.00;;;;;;;8.61;53.97;100791.00;129451;1263;114748;-64
2023/05/13 03:31:36;;;;;;;14.00;7.30;;;;;;;8.62;54.12;100791.68;129642;1261;114792;-66
2023/05/13 03:34:39;;;;;;;11.80;7.70;;;;;;;8.63;54.40;100792.20;129627;1280;114734;-67
2023/05/13 03:37:41;;;;;;;11.10;7.30;;;;;;;8.63;54.38;100787.71;129684;1278;114715;-69
2023/05/13 03:40:44;;;;;;;13.10;7.90;;;;;;;8.66;54.54;100792.64;129488;1264;127554;-64
2023/05/13 03:43:46;;;;;;;13.10;7.10;;;;;;;8.67;54.49;100789.75;129529;1280;114905;-68
2023/05/13 03:46:48;;;;;;;9.60;6.60;;;;;;;8.71;54.69;100795.68;129628;1281;114717;-69
2023/05/13 03:49:50;;;;;;;10.70;7.30;;;;;;;8.75;54.43;100795.52;129542;1262;114758;-66
2023/05/13 03:52:52;;;;;;;11.20;6.60;;;;;;;8.80;54.42;100800.86;129555;1281;114770;-69
2023/05/13 03:55:55;;;;;;;13.50;7.30;;;;;;;8.86;54.36;100799.97;129546;1281;114709;-68
2023/05/13 03:58:57;;;;;;;11.90;6.80;;;;;;;8.91;54.72;100797.64;129273;1281;114894;-69
2023/05/13 04:01:58;;;;;;;14.40;7.70;;;;;;;8.97;54.49;100797.63;129497;1262;114757;-70
2023/05/13 04:05:01;;;;;;;17.20;7.70;;;;;;;9.04;54.66;100800.05;129831;1260;114796;-70
2023/05/13 04:08:03;;;;;;;14.40;7.50;;;;;;;9.10;54.85;100802.34;129275;1281;114836;-69
2023/05/13 04:11:05;;;;;;;12.70;9.40;;;;;;;9.17;54.81;100805.13;129601;1262;114750;-72
2023/05/13 04:14:08;;;;;;;15.30;7.50;;;;;;;9.24;54.59;100805.59;129910;1280;114751;-65
2023/05/13 04:17:10;;;;;;;12.50;7.70;;;;;;;9.30;54.88;100808.20;129687;1280;114715;-69
2023/05/13 04:20:12;;;;;;;12.90;7.30;;;;;;;9.38;54.86;100812.56;129506;1280;114851;-70
2023/05/13 04:23:15;;;;;;;11.90;7.20;;;;;;;9.47;54.61;100816.54;129643;1280;114703;-67
2023/05/13 04:26:17;;;;;;;14.00;7.00;;;;;;;9.54;54.96;100820.00;129701;1280;114708;-67
2023/05/13 04:29:19;;;;;;;14.90;6.20;;;;;;;9.63;54.65;100815.42;129918;1280;114889;-67
2023/05/13 04:32:21;;;;;;;14.90;6.50;;;;;;;9.73;54.72;100813.05;129757;1261;114799;-70
2023/05/13 04:35:24;;;;;;;12.20;7.10;;;;;;;9.86;54.61;100817.55;129724;1261;114639;-67
2023/05/13 04:38:26;;;;;;;18.90;8.80;;;;;;;10.00;54.67;100819.34;129928;1280;114840;-70
2023/05/13 04:41:28;;;;;;;15.30;7.30;;;;;;;10.25;54.75;100819.45;129773;1280;115419;-68
2023/05/13 04:44:31;;;;;;;10.80;6.80;;;;;;;10.95;54.62;100820.01;129432;1275;128462;-70
2023/05/13 04:47:34;;;;;;;10.70;6.30;;;;;;;11.93;53.71;100812.23;129295;1263;115208;-70
2023/05/13 04:50:36;;;;;;;8.80;6.20;;;;;;;12.95;52.87;100808.91;129565;1262;114837;-64
2023/05/13 04:53:39;;;;;;;12.30;6.20;;;;;;;13.96;52.39;100810.56;129535;1262;114784;-67
2023/05/13 04:56:41;;;;;;;15.20;6.50;;;;;;;14.98;50.93;100815.41;129568;1261;114784;-68
2023/05/13 04:59:43;;;;;;;14.70;6.90;;;;;;;15.70;49.45;100809.05;129290;1281;114886;-66
2023/05/13 05:02:45;;;;;;;18.40;6.80;;;;;;;16.35;47.93;100808.89;129438;1259;114690;-67
2023/05/13 05:05:47;;;;;;;7.50;6.10;;;;;;;16.98;47.92;100804.35;129483;1281;115098;-69
2023/05/13 05:08:50;;;;;;;10.60;6.00;;;;;;;17.70;46.69;100805.30;129424;1260;115350;-68
2023/05/13 05:11:53;;;;;;;14.50;6.50;;;;;;;18.30;45.38;100805.91;129489;1259;115109;-69
2023/05/13 05:14:55;;;;;;;11.70;5.70;;;;;;;18.69;44.31;100805.69;129373;1265;114804;-70
2023/05/13 05:17:57;;;;;;;8.30;5.90;;;;;;;19.07;43.98;100808.83;129533;1259;114742;-70
2023/05/13 05:20:59;;;;;;;10.50;5.80;;;;;;;19.26;42.83;100812.06;129294;1265;115089;-69
2023/05/13 05:24:02;;;;;;;9.10;5.80;;;;;;;19.27;41.90;100813.09;129426;1272;114816;-69
2023/05/13 05:27:05;;;;;;;9.50;6.50;;;;;;;19.36;41.92;100813.69;129388;1281;114860;-64
2023/05/13 05:30:09;;;;;;;8.80;5.50;;;;;;;19.58;41.42;100810.85;129566;1263;115955;-64
2023/05/13 05:33:14;;;;;;;9.50;5.50;;;;;;;19.72;40.99;100810.88;129491;1265;115428;-70
2023/05/13 05:36:16;;;;;;;7.80;5.60;;;;;;;19.85;40.07;100811.76;129451;1262;114736;-67
2023/05/13 05:39:18;;;;;;;11.70;5.80;;;;;;;19.77;40.07;100819.38;129436;1278;115405;-68
2023/05/13 05:42:21;;;;;;;11.40;5.70;;;;;;;19.88;39.90;100823.35;129476;1262;115250;-65
2023/05/13 05:45:23;;;;;;;9.80;5.00;;;;;;;19.94;39.41;100818.18;129487;1281;114731;-68
2023/05/13 05:48:25;;;;;;;8.80;5.40;;;;;;;19.98;38.31;100821.27;129449;1271;115241;-67
2023/05/13 05:51:28;;;;;;;8.70;5.20;;;;;;;19.89;38.49;100828.39;129887;1262;115090;-71
2023/05/13 05:54:30;;;;;;;12.30;5.30;;;;;;;19.99;38.62;100825.80;129514;1281;114730;-70
2023/05/13 05:57:33;;;;;;;7.50;5.30;;;;;;;20.17;38.16;100828.70;129642;1276;115422;-70
2023/05/13 06:00:35;;;;;;;9.60;5.90;;;;;;;20.23;38.17;100828.76;129544;1262;114740;-70
2023/05/13 06:03:38;;;;;;;9.10;5.40;;;;;;;20.37;37.92;100830.09;129527;1281;114804;-64
2023/05/13 06:06:40;;;;;;;7.30;5.30;;;;;;;20.58;37.65;100827.83;129559;1265;114812;-69
2023/05/13 06:09:43;;;;;;;8.60;5.70;;;;;;;20.67;37.09;100824.53;129490;1278;115396;-70
2023/05/13 06:12:46;;;;;;;10.20;6.20;;;;;;;20.64;37.09;100825.14;129468;1263;114815;-68
2023/05/13 06:15:49;;;;;;;10.60;5.30;;;;;;;20.93;37.33;100822.23;129457;1265;114800;-66
2023/05/13 06:18:51;;;;;;;8.30;5.10;;;;;;;21.33;37.39;100818.77;129475;1265;114729;-68
2023/05/13 06:21:54;;;;;;;8.10;5.00;;;;;;;21.83;36.84;100819.70;129416;1281;114730;-68
2023/05/13 06:24:56;;;;;;;7.30;5.00;;;;;;;22.35;36.82;100819.86;129559;1259;114727;-67
2023/05/13 06:27:58;;;;;;;8.80;5.60;;;;;;;22.75;35.38;100820.27;129238;1267;115240;-67
2023/05/13 06:31:01;;;;;;;7.00;5.20;;;;;;;22.83;35.24;100825.34;129606;1263;114811;-67
2023/05/13 06:34:03;;;;;;;10.30;5.40;;;;;;;22.98;35.06;100825.61;129602;1276;115331;-66
2023/05/13 06:37:06;;;;;;;7.30;5.00;;;;;;;23.21;35.12;100826.67;129688;1280;114803;-68
2023/05/13 06:40:09;;;;;;;11.70;5.30;;;;;;;23.42;34.59;100826.88;129566;1262;114726;-67
2023/05/13 06:43:15;;;;;;;13.10;7.20;;;;;;;23.43;33.44;100831.53;129533;1281;114734;-69
2023/05/13 06:46:17;;;;;;;7.60;5.30;;;;;;;23.22;33.87;100828.81;129506;1281;115215;-64
2023/05/13 06:49:20;;;;;;;10.00;5.40;;;;;;;23.30;33.77;100832.95;129631;1281;115182;-68
2023/05/13 06:52:22;;;;;;;11.20;5.30;;;;;;;23.36;33.56;100830.95;129492;1278;114759;-72
2023/05/13 06:55:24;;;;;;;9.20;5.70;;;;;;;23.43;33.39;100832.69;129639;1278;114776;-70
2023/05/13 06:58:27;;;;;;;12.60;5.80;;;;;;;23.66;33.71;100830.82;129385;1265;114893;-70
2023/05/13 07:01:29;;;;;;;12.00;6.20;;;;;;;23.84;33.34;100831.80;129411;1262;114831;-69
2023/05/13 07:04:32;;;;;;;9.00;5.70;;;;;;;23.90;33.23;100832.55;129484;1279;114761;-67
2023/05/13 07:07:34;;;;;;;8.90;6.20;;;;;;;24.00;33.16;100834.71;129528;1262;114771;-70
2023/05/13 07:10:36;;;;;;;10.70;6.20;;;;;;;24.17;32.68;100834.46;129284;1263;114930;-72
2023/05/13 07:13:39;;;;;;;8.40;5.50;;;;;;;24.21;32.43;100834.04;129405;1281;114835;-70
2023/05/13 07:16:41;;;;;;;8.80;5.30;;;;;;;24.36;32.43;100827.32;129407;1269;114692;-72
2023/05/13 07:19:43;;;;;;;8.40;5.40;;;;;;;24.56;32.47;100832.41;129573;1281;115395;-70
2023/05/13 07:22:46;;;;;;;11.00;5.50;;;;;;;24.58;31.75;100831.84;129290;1281;128631;-68
2023/05/13 07:25:50;;;;;;;8.30;5.30;;;;;;;24.65;32.09;100828.27;129533;1272;114806;-72
2023/05/13 07:28:53;;;;;;;12.00;6.00;;;;;;;24.89;31.57;100829.54;129493;1281;114719;-70
2023/05/13 07:31:55;;;;;;;8.30;6.00;;;;;;;24.89;31.63;100829.71;129488;1281;114742;-69
2023/05/13 07:34:57;;;;;;;6.90;5.10;;;;;;;25.01;31.83;100828.72;129504;1281;114712;-69
2023/05/13 07:38:00;;;;;;;11.10;5.40;;;;;;;25.22;31.50;100827.38;129593;1262;115535;-70
2023/05/13 07:41:02;;;;;;;8.90;5.70;;;;;;;25.39;31.55;100831.30;129583;1264;128891;-70
2023/05/13 07:44:10;;;;;;;9.40;5.50;;;;;;;25.73;31.37;100835.02;129539;1262;114731;-69
2023/05/13 07:47:12;;;;;;;10.40;5.50;;;;;;;25.79;30.87;100832.27;129366;1267;114973;-71
2023/05/13 07:50:15;;;;;;;10.20;5.80;;;;;;;25.94;30.96;100831.63;129677;1262;114819;-66
2023/05/13 07:53:18;;;;;;;7.90;6.40;;;;;;;26.07;30.44;100834.82;129516;1274;114731;-70
2023/05/13 07:56:20;;;;;;;12.30;5.50;;;;;;;26.04;30.47;100837.03;129403;1260;114755;-70
2023/05/13 07:59:22;;;;;;;8.80;5.40;;;;;;;25.94;30.16;100837.67;129501;1281;114739;-68
2023/05/13 08:02:24;;;;;;;9.90;6.50;;;;;;;25.58;30.13;100840.56;129500;1262;115187;-65
2023/05/13 08:05:27;;;;;;;12.20;6.50;;;;;;;25.34;30.25;100844.45;129432;1258;114743;-71
2023/05/13 08:08:29;;;;;;;9.50;5.60;;;;;;;24.97;30.22;100850.44;129576;1261;114731;-67
2023/05/13 08:11:32;;;;;;;6.60;5.20;;;;;;;24.89;30.95;100843.95;129560;1281;114715;-71
2023/05/13 08:14:35;;;;;;;10.80;5.80;;;;;;;25.00;30.88;100846.27;129549;1272;114714;-71
2023/05/13 08:17:37;;;;;;;8.90;5.50;;;;;;;25.05;31.16;100845.27;129517;1263;114820;-68
2023/05/13 08:20:40;;;;;;;9.00;6.00;;;;;;;25.10;30.56;100847.88;129541;1262;114743;-64
2023/05/13 08:23:42;;;;;;;9.20;6.10;;;;;;;24.84;30.92;100851.17;129687;1262;115257;-68
2023/05/13 08:26:46;;;;;;;9.10;6.00;;;;;;;24.76;31.01;100857.91;129577;1271;114711;-68
2023/05/13 08:29:48;;;;;;;11.10;6.20;;;;;;;24.75;31.07;100857.00;129560;1265;114737;-74
2023/05/13 08:32:50;;;;;;;8.70;5.80;;;;;;;24.59;30.78;100857.13;129557;1281;114768;-71
2023/05/13 08:35:52;;;;;;;8.90;5.90;;;;;;;24.19;30.83;100858.77;129515;1281;114752;-68
2023/05/13 08:38:54;;;;;;;11.30;6.20;;;;;;;23.64;31.48;100865.12;129595;1270;129020;-69
2023/05/13 08:42:02;;;;;;;7.30;5.80;;;;;;;23.56;31.86;100865.13;129506;1262;114798;-68
2023/05/13 08:45:09;;;;;;;8.10;5.70;;;;;;;23.43;32.01;100863.69;129523;1272;114815;-67
2023/05/13 08:48:14;;;;;;;8.90;6.10;;;;;;;23.27;32.16;100862.18;129360;1266;115210;-70
2023/05/13 08:51:16;;;;;;;9.30;6.30;;;;;;;23.16;32.67;100856.33;129561;1263;114726;-65
2023/05/13 08:54:20;;;;;;;7.00;5.90;;;;;;;23.27;32.47;100862.92;129617;1272;114732;-64
2023/05/13 08:57:22;;;;;;;6.20;5.60;;;;;;;22.96;32.67;100864.48;129465;1281;114814;-63
2023/05/13 09:00:24;;;;;;;12.60;6.00;;;;;;;22.85;32.95;100862.09;129527;1271;114745;-71
2023/05/13 09:03:27;;;;;;;7.50;5.60;;;;;;;22.77;33.13;100858.67;129472;1274;114774;-61
2023/05/13 09:06:29;;;;;;;14.10;5.30;;;;;;;22.77;33.28;100854.98;129369;1267;116360;-68
2023/05/13 09:09:32;;;;;;;12.70;5.70;;;;;;;22.73;33.17;100858.30;129472;1281;114758;-63
2023/05/13 09:12:44;;;;;;;7.20;5.20;;;;;;;22.70;33.37;100860.05;129412;1271;114779;-69
2023/05/13 09:15:47;;;;;;;8.70;4.90;;;;;;;22.52;33.27;100853.67;129504;1281;115195;-66
2023/05/13 09:18:58;;;;;;;5.50;4.40;;;;;;;22.44;33.56;100851.60;129595;1281;114785;-71
2023/05/13 09:22:01;;;;;;;8.30;4.30;;;;;;;22.56;33.63;100849.48;129577;1265;115293;-63
2023/05/13 09:25:04;;;;;;;4.50;4.10;;;;;;;22.65;33.49;100849.17;129634;1263;115253;-70
2023/05/13 09:28:07;;;;;;;8.50;4.40;;;;;;;22.60;33.40;100846.89;129687;1281;114718;-67
2023/05/13 09:31:09;;;;;;;7.80;4.40;;;;;;;22.61;33.55;100848.42;129589;1280;115265;-68
2023/05/13 09:34:11;;;;;;;8.30;4.50;;;;;;;22.36;33.32;100839.93;129907;1278;114775;-69
2023/05/13 09:37:17;;;;;;;7.60;5.10;;;;;;;22.09;33.52;100843.05;129676;1262;115220;-70
2023/05/13 09:40:20;;;;;;;7.80;4.00;;;;;;;21.93;33.90;100837.94;129652;1261;114792;-63
2023/05/13 09:43:24;;;;;;;6.30;4.00;;;;;;;21.90;33.62;100835.66;129536;1270;114786;-63
2023/05/13 09:46:26;;;;;;;6.10;3.90;;;;;;;21.77;33.65;100838.08;129906;1262;114737;-74
2023/05/13 09:49:30;;;;;;;9.10;4.30;;;;;;;21.64;33.74;100837.64;129797;1263;116332;-70
2023/05/13 09:52:34;;;;;;;5.20;4.10;;;;;;;21.62;34.07;100831.05;129775;1260;114850;-64
2023/05/13 09:55:36;;;;;;;7.00;3.60;;;;;;;21.53;33.72;100834.39;129821;1270;114750;-67
2023/05/13 09:58:38;;;;;;;8.80;3.40;;;;;;;21.38;33.36;100838.67;129735;1270;114833;-62
2023/05/13 10:01:41;;;;;;;9.10;2.60;;;;;;;21.19;32.89;100834.19;129861;1270;114788;-63
2023/05/13 10:04:44;;;;;;;4.30;3.60;;;;;;;21.10;33.58;100830.21;129882;1258;114822;-62
2023/05/13 10:07:47;;;;;;;5.70;4.10;;;;;;;21.04;33.97;100836.03;129739;1271;114688;-66
2023/05/13 10:10:53;;;;;;;5.60;4.80;;;;;;;20.89;34.22;100833.64;129477;1258;115412;-66
2023/05/13 10:13:58;;;;;;;7.90;3.90;;;;;;;20.65;34.38;100832.34;129641;1262;114999;-63
2023/05/13 10:17:01;;;;;;;10.20;3.50;;;;;;;20.53;34.49;100832.98;129558;1265;114758;-61
2023/05/13 10:20:05;;;;;;;3.90;3.10;;;;;;;20.37;34.42;100834.98;129782;1258;129115;-66
2023/05/13 10:23:08;;;;;;;4.80;3.10;;;;;;;20.32;34.63;100828.69;129700;1263;115336;-62
2023/05/13 10:26:10;;;;;;;4.90;3.30;;;;;;;20.36;34.34;100832.36;129504;1260;114708;-67
2023/05/13 10:29:13;;;;;;;5.60;3.40;;;;;;;20.34;34.22;100834.88;129596;1263;115074;-62
2023/05/13 10:32:16;;;;;;;3.50;3.00;;;;;;;20.28;33.87;100838.27;129539;1281;114753;-63
2023/05/13 10:35:19;;;;;;;5.60;3.00;;;;;;;20.25;34.01;100832.02;129503;1262;114765;-66
2023/05/13 10:38:44;;;;;;;6.40;3.20;;;;;;;20.29;33.81;100832.23;129690;1281;128783;-65
2023/05/13 10:41:52;;;;;;;7.50;3.00;;;;;;;20.31;33.31;100826.64;129435;1281;114780;-61
2023/05/13 10:44:56;;;;;;;8.50;3.50;;;;;;;20.37;33.07;100824.33;129536;1282;114730;-62
2023/05/13 10:48:05;;;;;;;7.00;3.20;;;;;;;20.58;32.88;100821.67;129509;1272;114728;-61
2023/05/13 10:51:12;;;;;;;5.80;3.00;;;;;;;20.80;32.79;100810.45;129494;1281;114747;-61
2023/05/13 10:54:23;;;;;;;4.70;3.60;;;;;;;20.91;32.43;100814.34;129511;1268;128929;-61
2023/05/13 10:57:36;;;;;;;5.30;4.00;;;;;;;20.99;32.50;100815.20;129570;1264;115238;-63
2023/05/13 11:00:41;;;;;;;4.60;3.40;;;;;;;20.97;32.51;100818.61;129675;1272;114782;-60
2023/05/13 11:03:52;;;;;;;5.80;3.00;;;;;;;20.96;32.28;100821.08;129420;1265;114812;-63
2023/05/13 11:06:54;;;;;;;5.10;3.40;;;;;;;20.95;32.51;100822.20;129459;1264;114821;-61
2023/05/13 11:09:58;;;;;;;6.10;3.70;;;;;;;21.03;32.60;100822.69;129536;1270;114718;-63
2023/05/13 11:13:08;;;;;;;10.30;3.80;;;;;;;21.14;32.58;100816.27;129664;1264;114783;-64
2023/05/13 11:16:13;;;;;;;11.20;3.50;;;;;;;21.25;32.66;100819.34;129822;1261;114719;-62
2023/05/13 11:19:20;;;;;;;13.20;3.80;;;;;;;21.38;32.67;100816.05;129691;1280;114690;-61
2023/05/13 11:22:22;;;;;;;11.40;4.00;;;;;;;21.54;32.68;100812.33;129500;1263;115795;-62
2023/05/13 11:25:26;;;;;;;10.30;3.80;;;;;;;21.67;32.56;100816.98;129387;1279;115426;-61
2023/05/13 11:28:55;;;;;;;5.20;2.90;;;;;;;21.81;32.37;100818.10;129486;1271;114724;-63
2023/05/13 11:31:58;;;;;;;4.80;3.00;;;;;;;22.05;31.83;100815.80;129362;1266;114992;-62
2023/05/13 11:35:03;;;;;;;8.50;3.30;;;;;;;22.17;31.79;100807.12;129677;1258;114753;-61
2023/05/13 11:38:05;;;;;;;9.80;3.00;;;;;;;22.24;31.06;100807.37;129554;1271;114774;-63
2023/05/13 11:41:10;;;;;;;4.40;2.60;;;;;;;22.19;31.10;100801.08;129387;1263;128979;-61
2023/05/13 11:44:14;;;;;;;6.60;2.40;;;;;;;22.24;30.57;100799.92;129443;1271;114805;-63
2023/05/13 11:47:26;;;;;;;8.60;3.40;;;;;;;22.29;30.53;100800.52;129547;1281;114770;-63
2023/05/13 11:50:29;;;;;;;9.10;2.40;;;;;;;22.32;30.44;100806.11;129457;1263;114803;-65
2023/05/13 11:53:31;;;;;;;6.80;3.00;;;;;;;22.28;29.96;100802.64;129635;1263;116269;-62
2023/05/13 11:56:34;;;;;;;8.80;2.80;;;;;;;22.18;29.60;100807.48;129557;1258;115241;-61
2023/05/13 11:59:37;;;;;;;11.00;2.60;;;;;;;22.06;29.68;100802.66;129625;1271;114741;-59
2023/05/13 12:02:40;;;;;;;12.00;2.20;;;;;;;22.00;29.62;100804.63;129702;1273;114776;-61
2023/05/13 12:05:45;;;;;;;6.80;2.00;;;;;;;22.00;29.49;100800.38;129778;1257;114733;-60
2023/05/13 12:08:48;;;;;;;3.80;2.40;;;;;;;22.00;29.17;100804.20;129814;1280;114818;-61
2023/05/13 12:11:51;;;;;;;10.90;2.90;;;;;;;21.99;29.22;100803.19;129835;1280;115090;-61
2023/05/13 12:15:05;;;;;;;3.40;2.00;;;;;;;21.92;28.94;100798.77;129672;1280;114782;-61
2023/05/13 12:18:08;;;;;;;5.70;2.30;;;;;;;21.87;28.90;100799.90;129617;1261;115096;-61
2023/05/13 12:21:16;;;;;;;7.50;2.50;;;;;;;21.72;28.68;100805.24;129497;1280;115421;-64
2023/05/13 12:24:22;;;;;;;10.50;3.20;;;;;;;21.59;29.07;100794.59;129455;1262;114905;-59
2023/05/13 12:27:24;;;;;;;2.90;2.20;;;;;;;21.47;29.11;100804.91;129496;1273;114907;-59
2023/05/13 12:30:33;;;;;;;7.70;2.70;;;;;;;21.24;29.27;100804.34;129648;1271;114872;-62
2023/05/13 12:33:42;;;;;;;5.00;2.60;;;;;;;21.10;29.45;100801.34;129454;1269;115169;-63
2023/05/13 12:36:45;;;;;;;5.00;3.30;;;;;;;20.96;29.14;100800.04;129397;1260;114866;-62
2023/05/13 12:39:47;;;;;;;4.30;2.50;;;;;;;20.84;29.61;100798.73;129661;1278;114767;-65
2023/05/13 12:42:49;;;;;;;5.90;2.20;;;;;;;20.89;29.60;100806.06;129514;1273;114892;-62
2023/05/13 12:45:53;;;;;;;4.90;2.00;;;;;;;20.90;29.46;100805.39;129455;1268;114789;-61
2023/05/13 12:48:57;;;;;;;5.60;2.30;;;;;;;20.99;29.61;100803.92;129465;1281;127826;-63
2023/05/13 12:52:00;;;;;;;3.80;2.50;;;;;;;21.12;29.65;100799.87;129500;1264;114912;-62
2023/05/13 12:55:02;;;;;;;7.60;2.60;;;;;;;21.21;29.17;100806.73;129936;1257;114809;-63
2023/05/13 12:58:09;;;;;;;7.50;3.00;;;;;;;21.23;29.52;100806.18;129557;1263;114724;-61
2023/05/13 13:01:12;;;;;;;8.70;2.30;;;;;;;21.26;29.23;100813.61;129428;1280;114935;-61
2023/05/13 13:04:15;;;;;;;4.30;2.60;;;;;;;21.18;29.13;100811.79;129666;1280;114821;-62
2023/05/13 13:07:18;;;;;;;6.20;2.50;;;;;;;21.08;29.37;100815.11;129602;1260;114799;-62
2023/05/13 13:10:20;;;;;;;3.00;2.50;;;;;;;21.10;29.75;100815.89;129336;1280;360730;-63
2023/05/13 13:13:22;;;;;;;7.70;3.20;;;;;;;21.04;29.92;100820.89;129572;1261;114846;-61
2023/05/13 13:16:25;;;;;;;4.00;2.40;;;;;;;21.01;30.19;100820.62;129596;1267;114834;-64
2023/05/13 13:19:28;;;;;;;5.20;2.80;;;;;;;21.02;30.27;100819.64;129564;1266;114632;-62
2023/05/13 13:22:30;;;;;;;8.70;2.60;;;;;;;21.00;30.43;100821.64;129690;1264;114771;-65
2023/05/13 13:25:33;;;;;;;9.20;2.80;;;;;;;20.92;30.74;100822.48;129543;1257;114804;-65
2023/05/13 13:28:35;;;;;;;8.60;3.50;;;;;;;20.93;30.93;100821.52;129682;1263;115132;-63
2023/05/13 13:31:37;;;;;;;8.00;3.40;;;;;;;21.01;31.15;100823.59;129519;1264;114797;-63
2023/05/13 13:34:40;;;;;;;8.50;3.80;;;;;;;21.02;31.42;100822.17;129636;1264;115094;-62
2023/05/13 13:37:42;;;;;;;8.90;3.60;;;;;;;21.06;31.59;100816.38;129646;1281;114720;-60
2023/05/13 13:40:44;;;;;;;5.90;2.20;;;;;;;21.15;31.65;100816.71;130007;1259;114692;-65
2023/05/13 13:43:47;;;;;;;5.70;2.70;;;;;;;21.17;31.20;100819.23;129780;1269;128211;-61
2023/05/13 13:46:50;;;;;;;8.70;3.80;;;;;;;21.13;30.98;100817.80;129805;1273;115182;-62
2023/05/13 13:49:53;;;;;;;4.80;2.80;;;;;;;21.06;31.02;100817.82;130164;1260;114760;-62